createdAt,value
2018-02-08T00:02:14.528Z,90.40
2018-02-08T00:04:40.900Z,90.30
2018-02-08T00:07:07.250Z,90.10
2018-02-08T00:09:35.086Z,90.10
2018-02-08T00:12:01.446Z,90.10
2018-02-08T00:14:27.813Z,90.20
2018-02-08T00:16:54.178Z,90.20
2018-02-08T00:19:20.541Z,90.40
2018-02-08T00:21:46.904Z,90.30
2018-02-08T00:24:14.002Z,90.40
2018-02-08T00:26:41.104Z,90.40
2018-02-08T00:29:07.500Z,90.40
2018-02-08T00:31:33.863Z,90.40
2018-02-08T00:34:00.968Z,90.30
2018-02-08T00:36:27.371Z,90.30
2018-02-08T00:38:53.752Z,90.50
2018-02-08T00:41:20.170Z,90.60
2018-02-08T00:43:46.545Z,90.40
2018-02-08T00:46:12.902Z,90.40
2018-02-08T00:48:39.262Z,90.40
2018-02-08T00:51:05.617Z,90.30
2018-02-08T00:53:32.722Z,90.50
2018-02-08T00:55:59.079Z,90.50
2018-02-08T00:58:25.450Z,90.40
2018-02-08T01:00:51.806Z,90.20
2018-02-08T01:03:18.149Z,90.10
2018-02-08T01:05:44.547Z,90.30
2018-02-08T01:08:10.915Z,90.50
2018-02-08T01:10:37.288Z,90.60
2018-02-08T01:13:04.378Z,90.70
2018-02-08T01:15:30.751Z,90.70
2018-02-08T01:17:57.118Z,90.80
2018-02-08T01:20:23.486Z,91.00
2018-02-08T01:22:49.858Z,90.90
2018-02-08T01:25:16.945Z,91.10
2018-02-08T01:27:43.302Z,90.80
2018-02-08T01:30:09.710Z,90.70
2018-02-08T01:32:36.086Z,90.60
2018-02-08T01:35:02.465Z,90.70
2018-02-08T01:37:28.822Z,90.70
2018-02-08T01:39:55.190Z,90.60
2018-02-08T01:42:21.542Z,90.70
2018-02-08T01:44:47.904Z,90.60
2018-02-08T01:47:14.264Z,90.50
2018-02-08T01:49:44.648Z,90.50
2018-02-08T01:52:10.997Z,90.40
2018-02-08T01:54:37.470Z,90.40
2018-02-08T01:57:04.584Z,90.40
2018-02-08T01:59:30.954Z,90.40
2018-02-08T02:01:58.058Z,90.40
2018-02-08T02:04:24.418Z,90.40
2018-02-08T02:06:50.778Z,90.40
2018-02-08T02:09:17.886Z,90.30
2018-02-08T02:11:44.266Z,90.30
2018-02-08T02:14:10.644Z,90.20
2018-02-08T02:16:37.023Z,90.30
2018-02-08T02:19:04.210Z,90.20
2018-02-08T02:21:30.565Z,90.20
2018-02-08T02:23:56.964Z,90.10
2018-02-08T02:26:23.314Z,90.10
2018-02-08T02:28:49.683Z,90.10
2018-02-08T02:31:16.818Z,89.90
2018-02-08T02:33:43.195Z,89.90
2018-02-08T02:36:09.584Z,89.80
2018-02-08T02:38:35.951Z,89.80
2018-02-08T02:41:02.322Z,89.90
2018-02-08T02:43:28.692Z,90.00
2018-02-08T02:45:55.799Z,90.00
2018-02-08T02:48:22.177Z,90.00
2018-02-08T02:50:49.289Z,90.10
2018-02-08T02:53:15.638Z,90.10
2018-02-08T02:55:42.055Z,90.20
2018-02-08T02:58:08.436Z,90.30
2018-02-08T03:00:34.855Z,90.30
2018-02-08T03:03:01.944Z,90.20
2018-02-08T03:05:28.296Z,90.20
2018-02-08T03:07:54.641Z,90.30
2018-02-08T03:10:21.008Z,90.40
2018-02-08T03:12:47.400Z,90.30
2018-02-08T03:15:13.766Z,90.30
2018-02-08T03:17:40.879Z,90.40
2018-02-08T03:20:07.251Z,90.40
2018-02-08T03:22:33.614Z,90.30
2018-02-08T03:25:00.022Z,90.20
2018-02-08T03:27:26.413Z,90.10
2018-02-08T03:29:52.823Z,90.10
2018-02-08T03:32:19.239Z,90.20
2018-02-08T03:34:45.643Z,90.20
2018-02-08T03:37:12.022Z,90.10
2018-02-08T03:39:38.409Z,89.90
2018-02-08T03:42:05.508Z,89.50
2018-02-08T03:44:31.889Z,89.50
2018-02-08T03:46:58.287Z,89.80
2018-02-08T03:49:24.649Z,89.90
2018-02-08T03:51:51.747Z,89.80
2018-02-08T03:54:18.129Z,89.80
2018-02-08T03:56:45.227Z,89.10
2018-02-08T03:59:11.587Z,89.10
2018-02-08T04:01:37.961Z,89.10
2018-02-08T04:04:04.427Z,89.60
2018-02-08T04:06:30.826Z,89.60
2018-02-08T04:08:57.255Z,89.60
2018-02-08T04:11:23.621Z,89.60
2018-02-08T04:13:49.996Z,89.90
2018-02-08T04:16:17.101Z,89.70
2018-02-08T04:18:43.467Z,89.70
2018-02-08T04:21:10.550Z,89.60
2018-02-08T04:23:36.909Z,90.00
2018-02-08T04:26:03.312Z,89.30
2018-02-08T04:28:29.703Z,89.20
2018-02-08T04:30:56.799Z,90.00
2018-02-08T04:33:23.147Z,89.80
2018-02-08T04:35:49.513Z,89.80
2018-02-08T04:38:16.646Z,89.70
2018-02-08T04:40:55.249Z,89.70
2018-02-08T04:43:33.883Z,89.80
2018-02-08T04:46:12.506Z,90.10
2018-02-08T04:48:38.885Z,90.00
2018-02-08T04:51:05.240Z,90.30
2018-02-08T04:53:31.636Z,90.20
2018-02-08T04:55:58.038Z,90.30
2018-02-08T04:58:24.401Z,90.50
2018-02-08T05:00:50.754Z,90.40
2018-02-08T05:03:17.131Z,90.40
2018-02-08T05:05:44.344Z,90.40
2018-02-08T05:08:10.719Z,89.90
2018-02-08T05:10:37.830Z,89.70
2018-02-08T05:13:04.190Z,89.60
2018-02-08T05:15:30.557Z,89.70
2018-02-08T05:17:57.652Z,90.10
2018-02-08T05:20:24.037Z,90.10
2018-02-08T05:22:50.389Z,90.10
2018-02-08T05:25:16.813Z,90.00
2018-02-08T05:27:43.175Z,89.80
2018-02-08T05:30:09.541Z,89.90
2018-02-08T05:32:36.638Z,89.90
2018-02-08T05:35:02.997Z,89.80
2018-02-08T05:37:30.105Z,90.10
2018-02-08T05:39:56.457Z,90.00
2018-02-08T05:42:22.818Z,90.00
2018-02-08T05:44:49.164Z,89.70
2018-02-08T05:47:16.245Z,89.40
2018-02-08T05:49:42.613Z,89.40
2018-02-08T05:52:08.978Z,89.30
2018-02-08T05:54:36.115Z,89.30
2018-02-08T05:57:02.476Z,89.30
2018-02-08T05:59:28.825Z,89.10
2018-02-08T06:01:55.198Z,88.90
2018-02-08T06:04:21.566Z,89.00
2018-02-08T06:06:48.733Z,89.00
2018-02-08T06:09:15.114Z,89.60
2018-02-08T06:11:41.481Z,89.10
2018-02-08T06:14:08.579Z,89.10
2018-02-08T06:16:34.936Z,89.10
2018-02-08T06:19:01.297Z,89.00
2018-02-08T06:21:27.666Z,89.20
2018-02-08T06:23:54.022Z,88.80
2018-02-08T06:26:20.406Z,88.70
2018-02-08T06:28:46.760Z,88.80
2018-02-08T06:31:13.126Z,89.00
2018-02-08T06:33:40.225Z,89.00
2018-02-08T06:36:06.599Z,89.00
2018-02-08T06:38:33.706Z,89.40
2018-02-08T06:41:00.101Z,89.50
2018-02-08T06:43:27.202Z,89.60
2018-02-08T06:45:53.590Z,89.60
2018-02-08T06:48:19.967Z,89.60
2018-02-08T06:50:46.334Z,89.60
2018-02-08T06:53:13.451Z,90.00
2018-02-08T06:55:39.834Z,90.00
2018-02-08T06:58:06.225Z,90.00
2018-02-08T07:00:32.586Z,89.90
2018-02-08T07:02:58.963Z,89.80
2018-02-08T07:05:25.349Z,89.80
2018-02-08T07:07:51.810Z,89.40
2018-02-08T07:10:18.214Z,89.50
2018-02-08T07:12:45.316Z,89.50
2018-02-08T07:15:11.685Z,89.50
2018-02-08T07:17:38.777Z,90.00
2018-02-08T07:20:05.164Z,90.00
2018-02-08T07:22:32.269Z,90.00
2018-02-08T07:24:58.622Z,89.80
2018-02-08T07:27:24.999Z,90.00
2018-02-08T07:29:51.387Z,89.50
2018-02-08T07:32:17.715Z,89.80
2018-02-08T07:34:44.134Z,89.70
2018-02-08T07:37:10.492Z,89.90
2018-02-08T07:39:37.616Z,90.20
2018-02-08T07:42:05.476Z,90.30
2018-02-08T07:44:31.851Z,90.20
2018-02-08T07:47:05.149Z,90.10
2018-02-08T07:49:32.275Z,90.40
2018-02-08T07:51:58.646Z,90.10
2018-02-08T07:54:25.006Z,90.10
2018-02-08T07:56:51.365Z,90.00
2018-02-08T07:59:19.243Z,90.10
2018-02-08T08:01:46.365Z,90.10
2018-02-08T08:04:12.751Z,90.10
2018-02-08T08:06:39.116Z,90.30
2018-02-08T08:09:07.026Z,90.30
2018-02-08T08:11:33.387Z,90.30
2018-02-08T08:13:59.753Z,90.20
2018-02-08T08:16:26.098Z,90.00
2018-02-08T08:18:52.528Z,89.40
2018-02-08T08:21:18.932Z,89.60
2018-02-08T08:23:45.320Z,89.20
2018-02-08T08:26:12.435Z,88.80
2018-02-08T08:28:38.790Z,88.80
2018-02-08T08:31:05.873Z,89.00
2018-02-08T08:33:32.223Z,89.00
2018-02-08T08:35:58.580Z,88.70
2018-02-08T08:38:26.642Z,89.00
2018-02-08T08:40:53.015Z,89.10
2018-02-08T08:43:20.105Z,89.10
2018-02-08T08:45:46.497Z,89.10
2018-02-08T08:48:12.912Z,88.90
2018-02-08T08:50:40.051Z,89.10
2018-02-08T08:53:06.453Z,89.10
2018-02-08T08:55:32.857Z,89.00
2018-02-08T08:57:59.210Z,88.60
2018-02-08T09:00:25.583Z,88.50
2018-02-08T09:02:52.707Z,88.40
2018-02-08T09:05:19.059Z,88.40
2018-02-08T09:07:45.478Z,88.40
2018-02-08T09:10:11.886Z,87.60
2018-02-08T09:12:38.322Z,87.60
2018-02-08T09:15:04.697Z,87.50
2018-02-08T09:17:31.058Z,87.80
2018-02-08T09:19:58.162Z,87.50
2018-02-08T09:22:24.577Z,87.50
2018-02-08T09:24:50.947Z,87.80
2018-02-08T09:27:18.118Z,87.50
2018-02-08T09:29:44.685Z,87.50
2018-02-08T09:32:11.075Z,87.70
2018-02-08T09:34:38.178Z,88.20
2018-02-08T09:37:04.572Z,88.20
2018-02-08T09:39:30.980Z,88.30
2018-02-08T09:41:57.360Z,87.90
2018-02-08T09:44:23.790Z,87.60
2018-02-08T09:46:50.147Z,87.20
2018-02-08T09:49:16.563Z,86.90
2018-02-08T09:51:42.941Z,86.90
2018-02-08T09:54:10.059Z,86.60
2018-02-08T09:56:36.417Z,86.60
2018-02-08T09:59:03.533Z,86.20
2018-02-08T10:01:29.956Z,86.20
2018-02-08T10:03:56.763Z,86.00
2018-02-08T10:06:23.188Z,86.00
2018-02-08T10:08:49.554Z,85.60
2018-02-08T10:11:15.940Z,85.20
2018-02-08T10:13:43.054Z,85.20
2018-02-08T10:16:09.518Z,85.10
2018-02-08T10:18:36.736Z,86.50
2018-02-08T10:21:03.126Z,86.40
2018-02-08T10:23:29.493Z,86.30
2018-02-08T10:25:55.866Z,86.40
2018-02-08T10:28:23.007Z,86.70
2018-02-08T10:30:50.306Z,86.00
2018-02-08T10:33:16.704Z,85.80
2018-02-08T10:35:43.809Z,85.50
2018-02-08T10:38:10.175Z,85.50
2018-02-08T10:40:36.568Z,85.70
2018-02-08T10:43:02.938Z,85.10
2018-02-08T10:45:30.095Z,85.20
2018-02-08T10:47:57.308Z,84.90
2018-02-08T10:50:23.692Z,84.90
2018-02-08T10:52:50.058Z,85.00
2018-02-08T10:55:16.454Z,85.10
2018-02-08T10:57:43.246Z,85.20
2018-02-08T11:00:09.607Z,85.10
2018-02-08T11:02:36.004Z,85.70
2018-02-08T11:05:02.389Z,86.00
2018-02-08T11:07:29.487Z,86.30
2018-02-08T11:09:55.868Z,86.30
2018-02-08T11:12:22.259Z,85.70
2018-02-08T11:14:48.623Z,85.50
2018-02-08T11:17:15.770Z,85.20
2018-02-08T11:19:42.925Z,84.80
2018-02-08T11:22:09.296Z,85.40
2018-02-08T11:24:35.704Z,83.90
2018-02-08T11:27:02.091Z,84.40
2018-02-08T11:29:28.531Z,84.70
2018-02-08T11:31:55.683Z,84.70
2018-02-08T11:34:22.049Z,84.50
2018-02-08T11:36:48.439Z,83.70
2018-02-08T11:39:14.864Z,84.00
2018-02-08T11:41:41.240Z,83.60
2018-02-08T11:44:07.597Z,83.50
2018-02-08T11:46:33.951Z,83.60
2018-02-08T11:49:01.132Z,83.50
2018-02-08T11:51:27.536Z,84.70
2018-02-08T11:53:53.895Z,84.90
2018-02-08T11:56:20.982Z,84.70
2018-02-08T11:58:47.326Z,84.70
2018-02-08T12:01:13.709Z,84.70
2018-02-08T12:03:40.083Z,84.40
2018-02-08T12:06:06.436Z,84.80
2018-02-08T12:08:32.801Z,84.70
2018-02-08T12:10:59.918Z,83.90
2018-02-08T12:13:26.287Z,83.90
2018-02-08T12:15:53.384Z,83.10
2018-02-08T12:18:19.748Z,83.10
2018-02-08T12:20:46.913Z,83.80
2018-02-08T12:23:14.010Z,83.40
2018-02-08T12:25:40.392Z,83.40
2018-02-08T12:28:07.487Z,83.70
2018-02-08T12:30:33.891Z,83.10
2018-02-08T12:33:00.991Z,83.40
2018-02-08T12:35:27.463Z,83.40
2018-02-08T12:37:53.863Z,83.20
2018-02-08T12:40:20.246Z,82.30
2018-02-08T12:42:46.645Z,82.30
2018-02-08T12:45:13.747Z,82.80
2018-02-08T12:47:40.091Z,82.80
2018-02-08T12:50:06.485Z,83.30
2018-02-08T12:52:32.843Z,82.20
2018-02-08T12:54:59.969Z,81.90
2018-02-08T12:57:26.344Z,81.90
2018-02-08T12:59:52.706Z,81.90
2018-02-08T13:02:19.837Z,82.40
2018-02-08T13:04:46.986Z,81.80
2018-02-08T13:07:14.894Z,82.20
2018-02-08T13:09:41.241Z,82.20
2018-02-08T13:12:07.614Z,82.60
2018-02-08T13:14:33.988Z,82.60
2018-02-08T13:17:00.383Z,82.70
2018-02-08T13:19:27.506Z,83.00
2018-02-08T13:21:53.911Z,83.00
2018-02-08T13:24:20.279Z,82.60
2018-02-08T13:26:46.672Z,82.90
2018-02-08T13:29:13.040Z,83.40
2018-02-08T13:31:41.454Z,83.50
2018-02-08T13:34:08.588Z,83.20
2018-02-08T13:36:35.125Z,83.20
2018-02-08T13:39:02.345Z,83.30
2018-02-08T13:41:28.749Z,83.30
2018-02-08T13:43:55.119Z,83.10
2018-02-08T13:46:21.584Z,83.10
2018-02-08T13:48:49.765Z,84.10
2018-02-08T13:51:22.931Z,84.40
2018-02-08T13:53:56.212Z,84.50
2018-02-08T13:56:37.538Z,84.50
2018-02-08T13:59:09.961Z,84.60
2018-02-08T14:01:39.366Z,85.40
2018-02-08T14:04:05.755Z,84.90
2018-02-08T14:06:32.851Z,84.30
2018-02-08T14:08:59.229Z,84.30
2018-02-08T14:11:25.607Z,84.30
2018-02-08T14:13:51.965Z,83.80
2018-02-08T14:16:18.330Z,83.60
2018-02-08T14:18:44.690Z,83.80
2018-02-08T14:21:11.066Z,83.60
2018-02-08T14:23:38.207Z,83.70
2018-02-08T14:26:05.361Z,83.60
2018-02-08T14:28:32.524Z,83.40
2018-02-08T14:30:58.910Z,83.40
2018-02-08T14:33:25.270Z,83.60
2018-02-08T14:35:51.654Z,83.50
2018-02-08T14:38:18.026Z,83.90
2018-02-08T14:40:44.469Z,84.40
2018-02-08T14:43:11.626Z,84.20
2018-02-08T14:45:38.742Z,84.60
2018-02-08T14:48:05.149Z,84.30
2018-02-08T14:50:31.502Z,84.00
2018-02-08T14:52:57.871Z,84.30
2018-02-08T14:55:24.986Z,84.40
2018-02-08T14:57:51.338Z,84.30
2018-02-08T15:00:17.695Z,83.80
2018-02-08T15:02:44.793Z,84.50
2018-02-08T15:05:11.159Z,84.50
2018-02-08T15:07:38.262Z,84.20
2018-02-08T15:10:04.627Z,84.20
2018-02-08T15:12:30.984Z,84.50
2018-02-08T15:14:57.339Z,84.10
2018-02-08T15:17:23.729Z,84.10
2018-02-08T15:19:50.836Z,84.60
2018-02-08T15:22:17.197Z,84.20
2018-02-08T15:24:43.546Z,84.50
2018-02-08T15:27:10.698Z,83.90
2018-02-08T15:29:37.084Z,83.90
2018-02-08T15:32:03.466Z,84.40
2018-02-08T15:34:29.842Z,84.10
2018-02-08T15:36:56.207Z,84.10
2018-02-08T15:39:22.593Z,84.00
2018-02-08T15:41:49.014Z,84.60
2018-02-08T15:44:15.402Z,84.40
2018-02-08T15:46:42.495Z,83.90
2018-02-08T15:49:08.842Z,84.00
2018-02-08T15:51:35.212Z,83.90
2018-02-08T15:54:01.593Z,83.70
2018-02-08T15:56:27.975Z,84.00
2018-02-08T15:58:54.340Z,84.10
2018-02-08T16:01:21.441Z,85.20
2018-02-08T16:03:48.586Z,85.20
2018-02-08T16:06:14.953Z,85.20
2018-02-08T16:08:42.274Z,85.20
2018-02-08T16:11:08.660Z,85.20
2018-02-08T16:13:35.012Z,85.20
2018-02-08T16:16:01.387Z,85.20
2018-02-08T16:18:27.747Z,85.10
2018-02-08T16:20:54.841Z,85.10
2018-02-08T16:23:21.208Z,85.10
2018-02-08T16:25:48.319Z,85.50
2018-02-08T16:28:15.473Z,85.80
2018-02-08T16:30:41.858Z,85.80
2018-02-08T16:33:08.971Z,85.90
2018-02-08T16:35:35.357Z,85.90
2018-02-08T16:38:01.778Z,85.50
2018-02-08T16:40:28.164Z,85.90
2018-02-08T16:42:55.330Z,85.70
2018-02-08T16:45:22.450Z,86.10
2018-02-08T16:47:48.856Z,86.00
2018-02-08T16:50:15.233Z,85.90
2018-02-08T16:52:41.644Z,85.90
2018-02-08T16:55:08.002Z,86.20
2018-02-08T16:57:34.370Z,86.20
2018-02-08T17:00:00.724Z,86.20
2018-02-08T17:02:27.083Z,86.40
2018-02-08T17:04:53.472Z,86.60
2018-02-08T17:07:19.809Z,86.60
2018-02-08T17:09:46.215Z,86.40
2018-02-08T17:12:13.311Z,86.20
2018-02-08T17:14:39.682Z,86.20
2018-02-08T17:17:06.079Z,86.40
2018-02-08T17:19:32.430Z,86.40
2018-02-08T17:21:58.801Z,86.60
2018-02-08T17:24:25.207Z,86.70
2018-02-08T17:29:25.561Z,87.10
2018-02-08T17:31:52.710Z,87.00
2018-02-08T17:34:19.095Z,87.00
2018-02-08T17:36:45.493Z,87.00
2018-02-08T17:39:11.873Z,86.80
2018-02-08T17:41:38.290Z,87.00
2018-02-08T17:44:04.722Z,86.80
2018-02-08T17:46:31.158Z,86.80
2018-02-08T17:48:57.539Z,86.90
2018-02-08T17:51:23.898Z,86.90
2018-02-08T17:53:50.278Z,86.70
2018-02-08T17:56:17.402Z,86.30
2018-02-08T17:58:43.787Z,86.30
2018-02-08T18:01:10.179Z,86.20
2018-02-08T18:03:36.538Z,86.60
2018-02-08T18:06:03.688Z,86.90
2018-02-08T18:08:30.082Z,86.90
2018-02-08T18:10:57.206Z,86.70
2018-02-08T18:13:23.577Z,86.70
2018-02-08T18:15:50.701Z,86.80
2018-02-08T18:18:17.059Z,86.80
2018-02-08T18:20:44.940Z,86.60
2018-02-08T18:23:12.512Z,86.60
2018-02-08T18:25:39.640Z,86.30
2018-02-08T18:28:06.861Z,86.40
2018-02-08T18:30:33.247Z,86.40
2018-02-08T18:32:59.599Z,86.60
2018-02-08T18:35:25.976Z,86.70
2018-02-08T18:37:53.094Z,86.20
2018-02-08T18:40:19.496Z,86.20
2018-02-08T18:42:45.850Z,86.30
2018-02-08T18:47:48.220Z,86.60
2018-02-08T18:50:14.621Z,86.50
2018-02-08T18:52:41.091Z,86.50
2018-02-08T18:55:07.778Z,86.60
2018-02-08T18:57:34.268Z,87.00
2018-02-08T19:00:00.665Z,87.00
2018-02-08T19:02:27.786Z,87.50
2018-02-08T19:04:54.203Z,87.50
2018-02-08T19:07:20.550Z,87.60
2018-02-08T19:09:48.458Z,87.70
2018-02-08T19:12:14.810Z,87.60
2018-02-08T19:14:41.188Z,87.40
2018-02-08T19:17:07.630Z,87.10
2018-02-08T19:19:34.773Z,86.90
2018-02-08T19:22:01.173Z,86.90
2018-02-08T19:24:27.616Z,86.80
2018-02-08T19:26:53.967Z,86.90
2018-02-08T19:29:20.341Z,86.80
2018-02-08T19:31:46.714Z,86.60
2018-02-08T19:34:13.098Z,86.70
2018-02-08T19:36:39.489Z,86.10
2018-02-08T19:39:06.640Z,86.20
2018-02-08T19:41:33.087Z,86.20
2018-02-08T19:44:00.201Z,85.70
2018-02-08T19:46:26.590Z,85.70
2018-02-08T19:48:52.981Z,86.00
2018-02-08T19:51:19.345Z,86.20
2018-02-08T19:53:46.490Z,86.40
2018-02-08T19:56:13.618Z,86.50
2018-02-08T19:58:39.979Z,86.50
2018-02-08T20:01:07.437Z,86.40
2018-02-08T20:03:33.814Z,86.60
2018-02-08T20:06:00.208Z,86.20
2018-02-08T20:08:26.575Z,86.50
2018-02-08T20:10:52.921Z,86.30
2018-02-08T20:13:19.267Z,86.20
2018-02-08T20:15:45.657Z,86.40
2018-02-08T20:18:11.998Z,86.30
2018-02-08T20:20:38.392Z,86.50
2018-02-08T20:23:04.770Z,86.40
2018-02-08T20:25:46.968Z,86.40
2018-02-08T20:28:13.327Z,86.40
2018-02-08T20:30:39.715Z,86.50
2018-02-08T20:33:06.113Z,86.50
2018-02-08T20:35:32.490Z,86.80
2018-02-08T20:37:58.859Z,86.50
2018-02-08T20:40:35.067Z,86.60
2018-02-08T20:43:07.695Z,86.60
2018-02-08T20:45:34.050Z,86.90
2018-02-08T20:48:00.406Z,87.00
2018-02-08T20:50:26.770Z,87.40
2018-02-08T20:52:53.131Z,87.50
2018-02-08T20:55:20.383Z,87.50
2018-02-08T20:57:47.518Z,87.20
2018-02-08T21:00:13.939Z,87.20
2018-02-08T21:02:40.374Z,86.90
2018-02-08T21:05:06.981Z,87.00
2018-02-08T21:07:33.394Z,86.70
2018-02-08T21:09:59.780Z,86.70
2018-02-08T21:12:26.156Z,86.70
2018-02-08T21:14:52.544Z,86.80
2018-02-08T21:17:18.908Z,86.50
2018-02-08T21:19:46.004Z,86.40
2018-02-08T21:22:12.390Z,86.40
2018-02-08T21:24:38.755Z,86.80
2018-02-08T21:27:05.115Z,86.90
2018-02-08T21:29:31.461Z,87.20
2018-02-08T21:31:58.610Z,86.90
2018-02-08T21:34:25.741Z,86.90
2018-02-08T21:36:52.130Z,86.90
2018-02-08T21:39:18.506Z,87.50
2018-02-08T21:41:44.863Z,86.70
2018-02-08T21:44:11.974Z,86.80
2018-02-08T21:46:38.353Z,86.80
2018-02-08T21:49:04.715Z,86.90
2018-02-08T21:51:31.082Z,86.90
2018-02-08T21:53:57.429Z,86.80
2018-02-08T21:56:24.604Z,86.60
2018-02-08T21:58:50.974Z,86.60
2018-02-08T22:01:17.326Z,86.60
2018-02-08T22:03:43.690Z,86.80
2018-02-08T22:06:10.787Z,87.10
2018-02-08T22:08:37.159Z,87.10
2018-02-08T22:11:04.349Z,87.70
2018-02-08T22:13:30.714Z,87.70
2018-02-08T22:15:57.156Z,87.80
2018-02-08T22:18:24.289Z,88.00
2018-02-08T22:20:50.642Z,87.80
2018-02-08T22:23:17.746Z,87.50
2018-02-08T22:25:44.120Z,87.50
2018-02-08T22:28:10.474Z,87.20
2018-02-08T22:30:37.569Z,87.70
2018-02-08T22:33:03.926Z,87.70
2018-02-08T22:35:30.286Z,87.80
2018-02-08T22:37:56.649Z,88.30
2018-02-08T22:40:22.998Z,88.30
2018-02-08T22:42:49.362Z,88.10
2018-02-08T22:45:16.536Z,87.40
2018-02-08T22:47:42.935Z,87.40
2018-02-08T22:50:09.333Z,87.30
2018-02-08T22:52:35.738Z,87.40
2018-02-08T22:55:02.228Z,87.50
2018-02-08T22:57:29.424Z,87.10
2018-02-08T22:59:55.804Z,87.10
2018-02-08T23:02:22.230Z,86.90
2018-02-08T23:04:50.069Z,86.70
2018-02-08T23:07:16.436Z,86.70
2018-02-08T23:09:42.806Z,87.20
2018-02-08T23:12:09.172Z,87.50
2018-02-08T23:14:35.537Z,88.80
2018-02-08T23:17:03.485Z,90.00
2018-02-08T23:19:29.864Z,89.40
2018-02-08T23:21:57.107Z,87.90
2018-02-08T23:24:24.216Z,88.10
2018-02-08T23:26:50.582Z,88.10
2018-02-08T23:29:16.961Z,88.10
2018-02-08T23:31:43.356Z,87.60
2018-02-08T23:34:09.719Z,87.50
2018-02-08T23:36:36.062Z,88.00
2018-02-08T23:39:02.479Z,87.40
2018-02-08T23:41:28.849Z,87.30
2018-02-08T23:43:55.216Z,87.20
2018-02-08T23:46:22.315Z,86.90
2018-02-08T23:48:48.676Z,86.90
2018-02-08T23:51:15.104Z,86.80
2018-02-08T23:53:42.208Z,86.90
2018-02-08T23:56:08.576Z,87.50
2018-02-08T23:58:34.958Z,87.20
